createdAt,value
2023-03-20T06:58:50.526Z,9.45
2023-03-20T06:59:00.600Z,9.50
2023-03-20T06:59:10.624Z,9.50
2023-03-20T06:59:20.668Z,9.50
2023-03-20T06:59:30.775Z,9.52
2023-03-20T06:59:40.835Z,9.52
2023-03-20T06:59:50.874Z,9.50
2023-03-20T07:00:00.955Z,9.50
2023-03-20T07:00:10.976Z,9.50
2023-03-20T07:00:21.061Z,9.50
2023-03-20T07:00:31.182Z,9.50
2023-03-20T07:00:41.108Z,9.50
2023-03-20T07:00:51.122Z,9.49
2023-03-20T07:01:01.175Z,9.49
2023-03-20T07:01:11.187Z,9.49
2023-03-20T07:01:21.292Z,9.49
2023-03-20T07:01:31.357Z,9.49
2023-03-20T07:01:41.469Z,9.49
2023-03-20T07:01:51.536Z,9.49
2023-03-20T07:02:01.659Z,9.48
2023-03-20T07:02:11.883Z,9.48
2023-03-20T07:02:21.818Z,9.45
2023-03-20T07:02:31.968Z,9.45
2023-03-20T07:02:41.954Z,9.45
2023-03-20T07:02:51.976Z,9.45
2023-03-20T07:03:02.437Z,9.45
2023-03-20T07:03:12.109Z,9.44
2023-03-20T07:03:22.139Z,9.42
2023-03-20T07:03:32.234Z,9.42
2023-03-20T07:03:42.327Z,9.41
2023-03-20T07:03:52.403Z,9.41
2023-03-20T07:04:02.489Z,9.41
2023-03-20T07:04:12.539Z,9.41
2023-03-20T07:04:22.608Z,9.41
2023-03-20T07:04:32.651Z,9.40
2023-03-20T07:04:42.812Z,9.40
2023-03-20T07:04:52.898Z,9.40
2023-03-20T07:05:03.038Z,9.40
2023-03-20T07:05:12.978Z,9.40
2023-03-20T07:05:23.094Z,9.38
2023-03-20T07:05:33.150Z,9.38
2023-03-20T07:05:43.203Z,9.38
2023-03-20T07:05:53.274Z,9.37
2023-03-20T07:06:03.365Z,9.37
2023-03-20T07:06:13.428Z,9.35
2023-03-20T07:06:23.508Z,9.38
2023-03-20T07:06:33.566Z,9.37
2023-03-20T07:06:43.630Z,9.37
2023-03-20T07:06:53.698Z,9.35
2023-03-20T07:07:03.690Z,9.35
2023-03-20T07:07:13.809Z,9.37
2023-03-20T07:07:23.789Z,9.35
2023-03-20T07:07:33.790Z,9.35
2023-03-20T07:07:43.882Z,9.35
2023-03-20T07:07:53.891Z,9.35
2023-03-20T07:08:03.842Z,9.35
2023-03-20T07:08:13.940Z,9.35
2023-03-20T07:08:24.054Z,9.35
2023-03-20T07:08:35.264Z,9.35
2023-03-20T07:08:44.198Z,9.35
2023-03-20T07:08:54.301Z,9.35
2023-03-20T07:09:04.449Z,9.37
2023-03-20T07:09:14.517Z,9.37
2023-03-20T07:09:24.619Z,9.35
2023-03-20T07:09:34.692Z,9.35
2023-03-20T07:09:44.790Z,9.35
2023-03-20T07:09:54.902Z,9.37
2023-03-20T07:10:04.980Z,9.35
2023-03-20T07:10:15.141Z,9.35
2023-03-20T07:10:25.229Z,9.37
2023-03-20T07:10:35.311Z,9.37
2023-03-20T07:10:45.409Z,9.37
2023-03-20T07:10:55.510Z,9.37
2023-03-20T07:11:05.615Z,9.37
2023-03-20T07:11:15.571Z,9.37
2023-03-20T07:11:25.690Z,9.35
2023-03-20T07:11:35.776Z,9.37
2023-03-20T07:11:45.872Z,9.37
2023-03-20T07:11:55.947Z,9.38
2023-03-20T07:12:06.042Z,9.37
2023-03-20T07:12:16.137Z,9.37
2023-03-20T07:12:26.216Z,9.38
2023-03-20T07:12:36.281Z,9.38
2023-03-20T07:12:46.269Z,9.38
2023-03-20T07:12:56.341Z,9.40
2023-03-20T07:13:06.478Z,9.40
2023-03-20T07:13:16.629Z,9.41
2023-03-20T07:13:26.689Z,9.41
2023-03-20T07:13:36.680Z,9.40
2023-03-20T07:13:49.718Z,9.40
2023-03-20T07:13:56.862Z,9.38
2023-03-20T07:14:07.050Z,9.38
2023-03-20T07:14:17.106Z,9.38
2023-03-20T07:14:27.217Z,9.38
2023-03-20T07:14:37.325Z,9.38
2023-03-20T07:14:47.489Z,9.38
2023-03-20T07:14:57.561Z,9.38
2023-03-20T07:15:07.679Z,9.37
2023-03-20T07:15:17.752Z,9.37
2023-03-20T07:15:27.851Z,9.37
2023-03-20T07:15:38.134Z,9.35
2023-03-20T07:16:03.419Z,9.34
2023-03-20T07:16:04.560Z,9.32
2023-03-20T07:16:10.038Z,9.31
2023-03-20T07:16:20.025Z,9.32
2023-03-20T07:16:30.061Z,9.32
2023-03-20T07:16:40.161Z,9.34
2023-03-20T07:16:50.313Z,9.34
2023-03-20T07:17:00.481Z,9.32
2023-03-20T07:17:10.449Z,9.32
2023-03-20T07:17:20.569Z,9.31
2023-03-20T07:17:30.660Z,9.31
2023-03-20T07:17:40.803Z,9.31
2023-03-20T07:17:50.907Z,9.30
2023-03-20T07:18:01.074Z,9.31
2023-03-20T07:18:11.011Z,9.31
2023-03-20T07:18:21.091Z,9.30
2023-03-20T07:18:31.187Z,9.31
2023-03-20T07:18:41.290Z,9.31
2023-03-20T07:18:51.378Z,9.31
2023-03-20T07:19:01.481Z,9.30
2023-03-20T07:19:11.624Z,9.32
2023-03-20T07:19:21.609Z,9.32
2023-03-20T07:19:31.669Z,9.31
2023-03-20T07:19:41.818Z,9.34
2023-03-20T07:19:51.912Z,9.32
2023-03-20T07:20:02.000Z,9.31
2023-03-20T07:20:12.081Z,9.31
2023-03-20T07:20:22.171Z,9.31
2023-03-20T07:20:32.251Z,9.31
2023-03-20T07:20:42.335Z,9.32
2023-03-20T07:20:52.425Z,9.31
2023-03-20T07:21:02.416Z,9.31
2023-03-20T07:21:12.498Z,9.31
2023-03-20T07:21:22.598Z,9.31
2023-03-20T07:21:32.690Z,9.32
2023-03-20T07:21:42.781Z,9.32
2023-03-20T07:21:52.859Z,9.32
2023-03-20T07:22:02.961Z,9.32
2023-03-20T07:22:13.031Z,9.31
2023-03-20T07:22:23.142Z,9.30
2023-03-20T07:22:33.240Z,9.31
2023-03-20T07:22:43.358Z,9.30
2023-03-20T07:22:53.448Z,9.31
2023-03-20T07:23:03.538Z,9.27
2023-03-20T07:23:13.642Z,9.30
2023-03-20T07:23:23.719Z,9.30
2023-03-20T07:23:33.823Z,9.27
2023-03-20T07:23:43.918Z,9.30
2023-03-20T07:23:54.041Z,9.27
2023-03-20T07:24:04.123Z,9.30
2023-03-20T07:24:14.186Z,9.27
2023-03-20T07:24:24.338Z,9.26
2023-03-20T07:24:34.451Z,9.26
2023-03-20T07:24:47.172Z,9.24
2023-03-20T07:24:54.668Z,9.24
2023-03-20T07:25:04.760Z,9.23
2023-03-20T07:25:14.838Z,9.23
2023-03-20T07:25:39.280Z,9.23
2023-03-20T07:25:42.945Z,9.22
2023-03-20T07:25:47.139Z,9.22
2023-03-20T07:25:56.982Z,9.23
2023-03-20T07:26:07.112Z,9.24
2023-03-20T07:26:17.085Z,9.24
2023-03-20T07:26:27.139Z,9.24
2023-03-20T07:26:37.265Z,9.26
2023-03-20T07:26:47.339Z,9.26
2023-03-20T07:26:57.471Z,9.24
2023-03-20T07:27:07.541Z,9.23
2023-03-20T07:27:17.670Z,9.24
2023-03-20T07:27:27.788Z,9.24
2023-03-20T07:27:37.889Z,9.26
2023-03-20T07:27:47.971Z,9.24
2023-03-20T07:27:58.073Z,9.24
2023-03-20T07:28:08.149Z,9.24
2023-03-20T07:28:18.297Z,9.23
2023-03-20T07:28:28.467Z,9.23
2023-03-20T07:28:38.553Z,9.23
2023-03-20T07:28:48.663Z,9.23
2023-03-20T07:28:58.756Z,9.23
2023-03-20T07:29:08.853Z,9.22
2023-03-20T07:29:18.929Z,9.22
2023-03-20T07:29:29.023Z,9.22
2023-03-20T07:29:39.148Z,9.22
2023-03-20T07:29:49.248Z,9.22
2023-03-20T07:29:59.337Z,9.22
2023-03-20T07:30:09.314Z,9.19
2023-03-20T07:30:19.409Z,9.19
2023-03-20T07:30:29.479Z,9.20
2023-03-20T07:30:39.587Z,9.20
2023-03-20T07:30:49.657Z,9.20
2023-03-20T07:30:59.838Z,9.20
2023-03-20T07:31:09.791Z,9.19
2023-03-20T07:31:19.905Z,9.20
2023-03-20T07:31:30.009Z,9.19
2023-03-20T07:31:39.947Z,9.17
2023-03-20T07:31:50.064Z,9.19
2023-03-20T07:31:59.999Z,9.17
2023-03-20T07:32:10.079Z,9.17
2023-03-20T07:32:20.193Z,9.17
2023-03-20T07:32:30.318Z,9.17
2023-03-20T07:32:40.426Z,9.17
2023-03-20T07:32:50.556Z,9.16
2023-03-20T07:33:00.696Z,9.15
2023-03-20T07:33:10.824Z,9.15
2023-03-20T07:33:20.838Z,9.15
2023-03-20T07:33:30.765Z,9.13
2023-03-20T07:33:40.770Z,9.12
2023-03-20T07:33:50.865Z,9.12
2023-03-20T07:34:00.994Z,9.10
2023-03-20T07:34:11.161Z,9.10
2023-03-20T07:34:21.145Z,9.10
2023-03-20T07:34:31.250Z,9.08
2023-03-20T07:34:41.322Z,9.10
2023-03-20T07:34:51.488Z,9.06
2023-03-20T07:35:01.598Z,9.08
2023-03-20T07:35:11.701Z,9.04
2023-03-20T07:35:21.834Z,9.08
2023-03-20T07:35:31.890Z,9.06
2023-03-20T07:35:41.797Z,9.06
2023-03-20T07:35:51.961Z,9.06
2023-03-20T07:36:02.146Z,9.06
2023-03-20T07:36:12.045Z,9.04
2023-03-20T07:36:22.158Z,9.04
2023-03-20T07:36:32.250Z,9.04
2023-03-20T07:36:42.370Z,9.03
2023-03-20T07:36:52.435Z,9.04
2023-03-20T07:37:02.425Z,9.06
2023-03-20T07:37:12.488Z,9.04
2023-03-20T07:37:22.582Z,9.03
2023-03-20T07:37:32.558Z,9.06
2023-03-20T07:37:43.325Z,9.04
2023-03-20T07:37:52.689Z,9.06
2023-03-20T07:38:02.804Z,9.03
2023-03-20T07:38:12.888Z,9.04
2023-03-20T07:38:22.988Z,9.04
2023-03-20T07:38:33.089Z,9.04
2023-03-20T07:38:43.108Z,9.04
2023-03-20T07:38:53.146Z,9.06
2023-03-20T07:39:03.189Z,9.04
2023-03-20T07:39:13.261Z,9.04
2023-03-20T07:39:23.301Z,9.04
2023-03-20T07:39:33.357Z,9.06
2023-03-20T07:39:43.399Z,9.04
2023-03-20T07:39:53.448Z,9.04
2023-03-20T07:40:03.537Z,9.04
2023-03-20T07:40:13.586Z,9.04
2023-03-20T07:40:23.616Z,9.03
2023-03-20T07:40:33.672Z,9.03
2023-03-20T07:40:43.726Z,9.01
2023-03-20T07:40:53.829Z,9.00
2023-03-20T07:41:03.908Z,9.01
2023-03-20T07:41:14.027Z,8.98
2023-03-20T07:41:24.110Z,8.97
2023-03-20T07:41:34.174Z,8.97
2023-03-20T07:41:44.307Z,8.97
2023-03-20T07:41:54.366Z,8.97
2023-03-20T07:42:04.513Z,8.97
2023-03-20T07:42:14.584Z,8.94
2023-03-20T07:42:24.670Z,8.97
2023-03-20T07:42:34.735Z,8.98
2023-03-20T07:42:44.849Z,8.97
2023-03-20T07:42:54.942Z,8.97
2023-03-20T07:43:05.014Z,8.97
2023-03-20T07:43:15.146Z,8.97
2023-03-20T07:43:25.263Z,8.98
2023-03-20T07:43:35.384Z,8.97
2023-03-20T07:43:45.488Z,9.00
2023-03-20T07:43:55.592Z,9.00
2023-03-20T07:44:05.653Z,9.01
2023-03-20T07:44:15.754Z,9.00
2023-03-20T07:44:25.867Z,9.00
2023-03-20T07:44:35.964Z,9.01
2023-03-20T07:44:46.045Z,9.01
2023-03-20T07:44:56.148Z,9.03
2023-03-20T07:45:06.247Z,9.03
2023-03-20T07:45:16.355Z,9.03
2023-03-20T07:45:26.463Z,9.03
2023-03-20T07:45:36.889Z,9.01
2023-03-20T07:45:46.762Z,9.01
2023-03-20T07:45:56.720Z,9.01
2023-03-20T07:46:06.730Z,9.00
2023-03-20T07:46:16.860Z,9.00
2023-03-20T07:46:26.874Z,8.98
2023-03-20T07:46:36.979Z,8.98
2023-03-20T07:46:46.963Z,8.98
2023-03-20T07:46:57.042Z,8.96
2023-03-20T07:47:07.147Z,8.98
2023-03-20T07:47:17.115Z,8.97
2023-03-20T07:47:27.225Z,8.96
2023-03-20T07:47:37.329Z,8.97
2023-03-20T07:47:47.539Z,8.96
2023-03-20T07:47:57.516Z,8.97
2023-03-20T07:48:07.473Z,8.97
2023-03-20T07:48:17.573Z,8.94
2023-03-20T07:48:27.683Z,8.96
2023-03-20T07:48:37.777Z,8.96
2023-03-20T07:48:47.868Z,8.96
2023-03-20T07:48:57.980Z,8.97
2023-03-20T07:49:08.035Z,8.97
2023-03-20T07:49:18.067Z,9.00
2023-03-20T07:49:28.152Z,8.97
2023-03-20T07:49:38.247Z,8.98
2023-03-20T07:49:48.343Z,8.98
2023-03-20T07:49:58.414Z,9.00
2023-03-20T07:50:08.538Z,8.98
2023-03-20T07:50:18.592Z,9.03
2023-03-20T07:50:28.779Z,8.98
2023-03-20T07:50:38.682Z,9.00
2023-03-20T07:50:48.801Z,9.00
2023-03-20T07:50:58.926Z,8.98
2023-03-20T07:51:08.958Z,8.98
2023-03-20T07:51:19.003Z,8.98
2023-03-20T07:51:29.093Z,9.00
2023-03-20T07:51:39.213Z,9.00
2023-03-20T07:51:49.294Z,9.00
2023-03-20T07:51:59.406Z,8.98
2023-03-20T07:52:09.520Z,9.00
2023-03-20T07:52:19.511Z,9.00
2023-03-20T07:52:29.594Z,9.01
2023-03-20T07:52:39.749Z,9.01
2023-03-20T07:52:49.756Z,9.01
2023-03-20T07:52:59.902Z,9.01
2023-03-20T07:53:10.000Z,9.03
2023-03-20T07:53:20.094Z,9.03
2023-03-20T07:53:30.258Z,9.01
2023-03-20T07:53:40.182Z,9.03
2023-03-20T07:53:50.331Z,9.03
2023-03-20T07:54:00.461Z,9.04
2023-03-20T07:54:10.409Z,9.04
2023-03-20T07:54:20.580Z,9.01
2023-03-20T07:54:30.493Z,9.03
2023-03-20T07:54:40.581Z,9.03
2023-03-20T07:54:50.689Z,9.03
2023-03-20T07:55:00.805Z,9.03
2023-03-20T07:55:10.912Z,9.01
2023-03-20T07:55:20.991Z,9.04
2023-03-20T07:55:31.109Z,9.04
2023-03-20T07:55:41.193Z,9.04
2023-03-20T07:55:51.317Z,9.04
2023-03-20T07:56:01.420Z,9.04
2023-03-20T07:56:11.539Z,9.04
2023-03-20T07:56:21.622Z,9.04
2023-03-20T07:56:31.758Z,9.06
2023-03-20T07:56:41.820Z,9.06
2023-03-20T07:56:52.031Z,9.08
2023-03-20T07:57:01.970Z,9.04
2023-03-20T07:57:12.029Z,9.06
2023-03-20T07:57:22.104Z,9.04
2023-03-20T07:57:32.212Z,9.06
2023-03-20T07:57:42.297Z,9.06
2023-03-20T07:57:52.351Z,9.06
2023-03-20T07:58:02.442Z,9.06
2023-03-20T07:58:12.489Z,9.06
2023-03-20T07:58:22.570Z,9.06
2023-03-20T07:58:32.663Z,9.06
2023-03-20T07:58:42.740Z,9.06
2023-03-20T07:58:52.832Z,9.08
2023-03-20T07:59:02.893Z,9.06
2023-03-20T07:59:12.987Z,9.08
2023-03-20T07:59:23.051Z,9.08
2023-03-20T07:59:33.154Z,9.08
2023-03-20T07:59:43.208Z,9.08
2023-03-20T07:59:53.287Z,9.10
2023-03-20T08:00:03.324Z,9.06
2023-03-20T08:00:13.400Z,9.13
2023-03-20T08:00:23.518Z,9.12
2023-03-20T08:00:33.597Z,9.12
2023-03-20T08:00:43.720Z,9.13
2023-03-20T08:00:53.800Z,9.13
2023-03-20T08:01:03.879Z,9.13
2023-03-20T08:01:13.950Z,9.15
2023-03-20T08:01:24.024Z,9.15
2023-03-20T08:01:34.128Z,9.17
2023-03-20T08:01:44.188Z,9.15
2023-03-20T08:01:54.252Z,9.15
2023-03-20T08:02:04.326Z,9.17
2023-03-20T08:02:14.426Z,9.19
2023-03-20T08:02:24.465Z,9.17
2023-03-20T08:02:34.569Z,9.20
2023-03-20T08:02:44.696Z,9.20
2023-03-20T08:02:54.729Z,9.20
2023-03-20T08:03:04.823Z,9.22
2023-03-20T08:03:14.966Z,9.22
2023-03-20T08:03:25.013Z,9.22
2023-03-20T08:03:35.190Z,9.23
2023-03-20T08:03:45.281Z,9.23
2023-03-20T08:03:55.451Z,9.22
2023-03-20T08:04:05.570Z,9.23
2023-03-20T08:04:15.549Z,9.26
2023-03-20T08:04:25.563Z,9.24
2023-03-20T08:04:35.574Z,9.26
2023-03-20T08:04:45.665Z,9.27
2023-03-20T08:04:55.664Z,9.24
2023-03-20T08:05:05.738Z,9.26
2023-03-20T08:05:15.749Z,9.26
2023-03-20T08:05:25.872Z,9.27
2023-03-20T08:05:36.208Z,9.26
2023-03-20T08:05:47.598Z,9.27
2023-03-20T08:05:56.029Z,9.26
2023-03-20T08:06:06.168Z,9.26
2023-03-20T08:06:16.177Z,9.27
2023-03-20T08:06:26.259Z,9.27
2023-03-20T08:06:36.354Z,9.26
2023-03-20T08:06:46.336Z,9.27
2023-03-20T08:06:56.368Z,9.30
2023-03-20T08:07:06.389Z,9.27
2023-03-20T08:07:16.550Z,9.27
2023-03-20T08:07:26.494Z,9.27
2023-03-20T08:07:36.614Z,9.30
2023-03-20T08:07:46.714Z,9.27
2023-03-20T08:07:56.865Z,9.27
2023-03-20T08:08:07.003Z,9.31
2023-03-20T08:08:17.018Z,9.31
2023-03-20T08:08:27.032Z,9.27
2023-03-20T08:08:37.118Z,9.32
2023-03-20T08:08:47.186Z,9.31
2023-03-20T08:08:57.275Z,9.31
2023-03-20T08:09:07.397Z,9.30
2023-03-20T08:09:17.319Z,9.30
2023-03-20T08:09:27.411Z,9.30
2023-03-20T08:09:37.467Z,9.31
2023-03-20T08:09:47.548Z,9.31
2023-03-20T08:09:57.619Z,9.32
2023-03-20T08:10:07.685Z,9.35
2023-03-20T08:10:17.770Z,9.32
2023-03-20T08:10:27.889Z,9.34
2023-03-20T08:10:37.985Z,9.34
2023-03-20T08:10:48.077Z,9.32
2023-03-20T08:10:58.203Z,9.35
2023-03-20T08:11:08.319Z,9.35
2023-03-20T08:11:18.287Z,9.37
2023-03-20T08:11:28.419Z,9.35
2023-03-20T08:11:38.519Z,9.37
2023-03-20T08:11:48.609Z,9.37
2023-03-20T08:11:58.701Z,9.37
2023-03-20T08:12:08.791Z,9.38
2023-03-20T08:12:18.919Z,9.38
2023-03-20T08:12:29.011Z,9.38
2023-03-20T08:12:39.119Z,9.40
2023-03-20T08:12:49.190Z,9.41
2023-03-20T08:12:59.291Z,9.38
2023-03-20T08:13:09.388Z,9.40
2023-03-20T08:13:19.490Z,9.42
2023-03-20T08:13:29.520Z,9.41
2023-03-20T08:13:39.658Z,9.40
2023-03-20T08:13:49.770Z,9.44
2023-03-20T08:13:59.878Z,9.41
2023-03-20T08:14:09.970Z,9.42
2023-03-20T08:14:20.096Z,9.41
2023-03-20T08:14:30.195Z,9.44
2023-03-20T08:14:40.340Z,9.44
2023-03-20T08:14:50.401Z,9.45
2023-03-20T08:15:00.546Z,9.44
2023-03-20T08:15:10.635Z,9.44
2023-03-20T08:15:20.746Z,9.48
2023-03-20T08:15:30.815Z,9.44
2023-03-20T08:15:40.908Z,9.45
2023-03-20T08:15:51.022Z,9.49
2023-03-20T08:16:01.201Z,9.49
2023-03-20T08:16:11.153Z,9.49
2023-03-20T08:16:21.304Z,9.48
2023-03-20T08:16:31.254Z,9.48
2023-03-20T08:16:41.409Z,9.48
2023-03-20T08:17:06.245Z,9.45
2023-03-20T08:17:14.516Z,9.45
2023-03-20T08:17:16.084Z,9.48
2023-03-20T08:17:23.515Z,9.48
2023-03-20T08:17:33.525Z,9.48
2023-03-20T08:17:43.626Z,9.48
2023-03-20T08:17:53.700Z,9.48
2023-03-20T08:18:03.803Z,9.49
2023-03-20T08:18:13.923Z,9.49
2023-03-20T08:18:24.014Z,9.48
2023-03-20T08:18:34.138Z,9.48
2023-03-20T08:18:44.200Z,9.49
2023-03-20T08:18:54.325Z,9.48
2023-03-20T08:19:04.441Z,9.49
2023-03-20T08:19:14.567Z,9.49
2023-03-20T08:19:24.630Z,9.50
2023-03-20T08:19:34.736Z,9.49
2023-03-20T08:19:44.823Z,9.52
2023-03-20T08:19:54.924Z,9.49
2023-03-20T08:20:04.993Z,9.52
2023-03-20T08:20:15.092Z,9.52
2023-03-20T08:20:25.194Z,9.53
2023-03-20T08:20:35.291Z,9.52
2023-03-20T08:20:45.391Z,9.55
2023-03-20T08:20:55.527Z,9.55
2023-03-20T08:21:05.644Z,9.58
2023-03-20T08:21:15.736Z,9.56
2023-03-20T08:21:25.827Z,9.58
2023-03-20T08:21:35.956Z,9.58
2023-03-20T08:21:46.103Z,9.56
2023-03-20T08:21:56.066Z,9.58
2023-03-20T08:22:05.985Z,9.58
2023-03-20T08:22:16.151Z,9.59
2023-03-20T08:22:26.201Z,9.60
2023-03-20T08:22:36.301Z,9.59
2023-03-20T08:22:46.421Z,9.60
2023-03-20T08:22:56.531Z,9.60
2023-03-20T08:23:06.624Z,9.62
2023-03-20T08:23:18.199Z,9.62
2023-03-20T08:23:26.761Z,9.62
2023-03-20T08:23:36.907Z,9.63
2023-03-20T08:23:46.902Z,9.63
2023-03-20T08:23:56.974Z,9.65
2023-03-20T08:24:07.055Z,9.63
2023-03-20T08:24:17.194Z,9.65
2023-03-20T08:24:27.261Z,9.63
2023-03-20T08:24:37.365Z,9.65
2023-03-20T08:24:47.446Z,9.65
2023-03-20T08:24:57.542Z,9.65
2023-03-20T08:25:07.612Z,9.65
2023-03-20T08:25:17.721Z,9.65
2023-03-20T08:25:27.803Z,9.63
2023-03-20T08:25:38.345Z,9.62
2023-03-20T08:25:47.892Z,9.65
2023-03-20T08:25:57.960Z,9.67
2023-03-20T08:26:08.146Z,9.65
2023-03-20T08:26:18.222Z,9.67
2023-03-20T08:26:28.359Z,9.67
2023-03-20T08:26:38.432Z,9.67
2023-03-20T08:26:48.543Z,9.65
2023-03-20T08:26:58.620Z,9.65
2023-03-20T08:27:08.757Z,9.63
2023-03-20T08:27:18.770Z,9.63
2023-03-20T08:27:28.703Z,9.60
2023-03-20T08:27:38.938Z,9.62
2023-03-20T08:27:48.856Z,9.62
2023-03-20T08:27:58.943Z,9.60
2023-03-20T08:28:09.025Z,9.60
2023-03-20T08:28:19.097Z,9.59
2023-03-20T08:28:46.291Z,9.60
2023-03-20T08:28:47.453Z,9.59
2023-03-20T08:28:52.478Z,9.59
2023-03-20T08:29:01.296Z,9.62
2023-03-20T08:29:11.417Z,9.60
2023-03-20T08:29:21.495Z,9.60
2023-03-20T08:29:31.582Z,9.60
2023-03-20T08:29:41.707Z,9.62
2023-03-20T08:29:51.815Z,9.62
2023-03-20T08:30:01.949Z,9.63
2023-03-20T08:30:12.065Z,9.63
2023-03-20T08:30:22.177Z,9.63
2023-03-20T08:30:32.369Z,9.63
2023-03-20T08:30:42.338Z,9.62
2023-03-20T08:30:52.430Z,9.63
2023-03-20T08:31:02.594Z,9.60
2023-03-20T08:31:12.715Z,9.62
2023-03-20T08:31:22.832Z,9.60
2023-03-20T08:31:32.943Z,9.60
2023-03-20T08:31:43.036Z,9.59
2023-03-20T08:31:53.118Z,9.60
2023-03-20T08:32:03.204Z,9.59
2023-03-20T08:32:13.274Z,9.60
2023-03-20T08:32:23.365Z,9.59
2023-03-20T08:32:33.550Z,9.60
2023-03-20T08:32:43.552Z,9.60
2023-03-20T08:32:53.648Z,9.60
2023-03-20T08:33:03.841Z,9.60
2023-03-20T08:33:14.021Z,9.63
2023-03-20T08:33:23.952Z,9.62
2023-03-20T08:33:34.027Z,9.60
2023-03-20T08:33:44.121Z,9.60
2023-03-20T08:33:54.245Z,9.62
2023-03-20T08:34:04.355Z,9.62
2023-03-20T08:34:14.455Z,9.63
2023-03-20T08:34:24.548Z,9.62
2023-03-20T08:34:34.648Z,9.60
2023-03-20T08:34:44.712Z,9.58
2023-03-20T08:34:54.813Z,9.58
2023-03-20T08:35:04.940Z,9.56
2023-03-20T08:35:31.843Z,9.58
2023-03-20T08:35:33.283Z,9.56
2023-03-20T08:35:36.967Z,9.53
2023-03-20T08:35:47.533Z,9.58
2023-03-20T08:35:57.234Z,9.58
2023-03-20T08:36:07.393Z,9.59
2023-03-20T08:36:17.449Z,9.60
2023-03-20T08:36:27.444Z,9.58
2023-03-20T08:36:37.387Z,9.59
2023-03-20T08:36:47.497Z,9.60
2023-03-20T08:36:57.593Z,9.60
2023-03-20T08:37:07.745Z,9.60
2023-03-20T08:37:17.764Z,9.62
2023-03-20T08:37:27.853Z,9.63
2023-03-20T08:37:37.971Z,9.63
2023-03-20T08:37:48.082Z,9.62
2023-03-20T08:37:58.172Z,9.62
2023-03-20T08:38:08.327Z,9.63
2023-03-20T08:38:18.421Z,9.67
2023-03-20T08:38:28.501Z,9.67
2023-03-20T08:38:38.621Z,9.67
2023-03-20T08:38:48.739Z,9.67
2023-03-20T08:38:58.734Z,9.73
2023-03-20T08:39:08.798Z,9.70
2023-03-20T08:39:18.916Z,9.70
2023-03-20T08:39:29.026Z,9.71
2023-03-20T08:39:39.181Z,9.73
2023-03-20T08:39:49.295Z,9.74
2023-03-20T08:39:59.313Z,9.74
2023-03-20T08:40:09.453Z,9.74
2023-03-20T08:40:19.696Z,9.74
2023-03-20T08:40:29.625Z,9.77
2023-03-20T08:40:39.612Z,9.78
2023-03-20T08:40:49.718Z,9.80
2023-03-20T08:40:59.836Z,9.81
2023-03-20T08:41:10.018Z,9.80
2023-03-20T08:41:19.972Z,9.80
2023-03-20T08:41:30.063Z,9.81
2023-03-20T08:41:40.185Z,9.83
2023-03-20T08:41:50.324Z,9.81
2023-03-20T08:42:01.218Z,9.81
2023-03-20T08:42:10.473Z,9.81
2023-03-20T08:42:20.562Z,9.85
2023-03-20T08:42:30.684Z,9.86
2023-03-20T08:42:40.773Z,9.88
2023-03-20T08:42:50.882Z,9.88
2023-03-20T08:43:00.963Z,9.89
2023-03-20T08:43:11.118Z,9.89
2023-03-20T08:43:21.202Z,9.91
2023-03-20T08:43:31.332Z,9.89
2023-03-20T08:43:41.460Z,9.93
2023-03-20T08:43:52.098Z,9.92
2023-03-20T08:44:01.592Z,9.92
2023-03-20T08:44:11.701Z,9.93
2023-03-20T08:44:21.780Z,9.95
2023-03-20T08:44:31.902Z,9.95
2023-03-20T08:44:42.021Z,9.96
2023-03-20T08:44:52.110Z,9.98
2023-03-20T08:45:02.217Z,9.99
2023-03-20T08:45:12.323Z,9.99
2023-03-20T08:45:22.408Z,9.98
2023-03-20T08:45:32.502Z,9.98
2023-03-20T08:45:42.652Z,9.99
2023-03-20T08:45:52.765Z,9.99
2023-03-20T08:46:02.926Z,10.01
2023-03-20T08:46:13.117Z,10.02
2023-03-20T08:46:23.028Z,10.02
2023-03-20T08:46:33.013Z,10.04
2023-03-20T08:46:43.101Z,10.04
2023-03-20T08:46:53.179Z,10.04
2023-03-20T08:47:03.478Z,10.06
2023-03-20T08:47:13.463Z,10.06
2023-03-20T08:47:23.549Z,10.04
2023-03-20T08:47:33.646Z,10.09
2023-03-20T08:47:43.737Z,10.06
2023-03-20T08:47:53.875Z,10.09
2023-03-20T08:48:03.971Z,10.09
2023-03-20T08:48:14.153Z,10.11
2023-03-20T08:48:24.248Z,10.11
2023-03-20T08:48:34.368Z,10.13
2023-03-20T08:48:44.588Z,10.11
2023-03-20T08:48:54.543Z,10.14
2023-03-20T08:49:04.609Z,10.17
2023-03-20T08:49:14.721Z,10.17
2023-03-20T08:49:24.808Z,10.17
2023-03-20T08:49:34.908Z,10.18
2023-03-20T08:49:44.999Z,10.20
2023-03-20T08:49:55.139Z,10.22
2023-03-20T08:50:05.254Z,10.24
2023-03-20T08:50:15.365Z,10.25
2023-03-20T08:50:25.514Z,10.25
2023-03-20T08:50:35.590Z,10.26
2023-03-20T08:50:45.690Z,10.28
2023-03-20T08:50:55.811Z,10.26
2023-03-20T08:51:05.912Z,10.31
2023-03-20T08:51:16.047Z,10.29
2023-03-20T08:51:26.189Z,10.34
2023-03-20T08:51:36.336Z,10.32
2023-03-20T08:51:46.429Z,10.35
2023-03-20T08:51:56.567Z,10.35
2023-03-20T08:52:06.705Z,10.38
2023-03-20T08:52:16.768Z,10.36
2023-03-20T08:52:26.962Z,10.39
2023-03-20T08:52:36.970Z,10.42
2023-03-20T08:52:47.217Z,10.42
2023-03-20T08:52:57.157Z,10.42
2023-03-20T08:53:07.265Z,10.42
2023-03-20T08:53:17.383Z,10.43
2023-03-20T08:53:27.364Z,10.43
2023-03-20T08:53:37.485Z,10.43
2023-03-20T08:53:47.599Z,10.44
2023-03-20T08:53:57.719Z,10.43
2023-03-20T08:54:07.840Z,10.44
2023-03-20T08:54:17.954Z,10.46
2023-03-20T08:54:28.113Z,10.46
2023-03-20T08:54:38.099Z,10.46
2023-03-20T08:54:48.170Z,10.51
2023-03-20T08:54:58.259Z,10.49
2023-03-20T08:55:08.354Z,10.49
2023-03-20T08:55:18.456Z,10.47
2023-03-20T08:55:28.591Z,10.52
2023-03-20T08:55:38.953Z,10.51
2023-03-20T08:55:48.742Z,10.52
2023-03-20T08:55:58.816Z,10.49
2023-03-20T08:56:08.927Z,10.49
2023-03-20T08:56:19.048Z,10.51
2023-03-20T08:56:28.995Z,10.51
2023-03-20T08:56:39.094Z,10.51
2023-03-20T08:56:49.251Z,10.52
2023-03-20T08:56:59.155Z,10.51
2023-03-20T08:57:09.367Z,10.51
2023-03-20T08:57:19.433Z,10.49
2023-03-20T08:57:29.759Z,10.51
2023-03-20T08:57:39.869Z,10.51
2023-03-20T08:57:49.901Z,10.51
2023-03-20T08:57:59.887Z,10.52
2023-03-20T08:58:09.985Z,10.51
2023-03-20T08:58:20.080Z,10.51
2023-03-20T08:58:30.084Z,10.52
2023-03-20T08:58:40.202Z,10.52
2023-03-20T08:58:50.335Z,10.51
2023-03-20T08:59:00.483Z,10.52
2023-03-20T08:59:10.598Z,10.52
2023-03-20T08:59:20.725Z,10.52
2023-03-20T08:59:30.816Z,10.54
2023-03-20T08:59:40.990Z,10.52
2023-03-20T08:59:51.055Z,10.55
2023-03-20T09:00:01.194Z,10.55
2023-03-20T09:00:11.276Z,10.55
2023-03-20T09:00:21.402Z,10.57
2023-03-20T09:00:31.501Z,10.57
2023-03-20T09:00:41.651Z,10.58
2023-03-20T09:00:51.729Z,10.58
2023-03-20T09:01:01.889Z,10.58
2023-03-20T09:01:11.798Z,10.62
2023-03-20T09:01:21.931Z,10.58
2023-03-20T09:01:46.239Z,10.60
2023-03-20T09:01:49.725Z,10.58
2023-03-20T09:01:54.053Z,10.60
2023-03-20T09:02:04.013Z,10.62
2023-03-20T09:02:14.059Z,10.65
2023-03-20T09:02:24.218Z,10.68
2023-03-20T09:02:34.249Z,10.66
2023-03-20T09:02:44.215Z,10.66
2023-03-20T09:02:54.335Z,10.69
2023-03-20T09:03:04.459Z,10.69
2023-03-20T09:03:14.464Z,10.69
2023-03-20T09:03:24.493Z,10.69
2023-03-20T09:03:34.578Z,10.69
2023-03-20T09:03:44.754Z,10.70
2023-03-20T09:03:54.881Z,10.70
2023-03-20T09:04:05.006Z,10.72
2023-03-20T09:04:15.107Z,10.75
2023-03-20T09:04:25.287Z,10.76
2023-03-20T09:04:35.285Z,10.78
2023-03-20T09:04:45.428Z,10.78
2023-03-20T09:04:55.540Z,10.78
2023-03-20T09:05:05.702Z,10.78
2023-03-20T09:05:15.774Z,10.80
2023-03-20T09:05:25.898Z,10.80
2023-03-20T09:05:36.280Z,10.78
2023-03-20T09:05:46.120Z,10.78
2023-03-20T09:05:56.261Z,10.80
2023-03-20T09:06:06.359Z,10.80
2023-03-20T09:06:16.497Z,10.80
2023-03-20T09:06:26.606Z,10.81
2023-03-20T09:06:36.781Z,10.84
2023-03-20T09:06:46.913Z,10.84
2023-03-20T09:06:56.867Z,10.83
2023-03-20T09:07:06.956Z,10.86
2023-03-20T09:07:17.065Z,10.86
2023-03-20T09:07:27.221Z,10.84
2023-03-20T09:07:37.186Z,10.87
2023-03-20T09:07:47.274Z,10.87
2023-03-20T09:07:57.404Z,10.88
2023-03-20T09:08:07.543Z,10.90
2023-03-20T09:08:17.695Z,10.88
2023-03-20T09:08:27.861Z,10.90
2023-03-20T09:08:37.788Z,10.90
2023-03-20T09:08:47.783Z,10.91
2023-03-20T09:08:57.994Z,10.90
2023-03-20T09:09:07.955Z,10.91
2023-03-20T09:09:18.056Z,10.91
2023-03-20T09:09:28.177Z,10.90
2023-03-20T09:09:38.265Z,10.90
2023-03-20T09:09:48.414Z,10.91
2023-03-20T09:09:58.522Z,10.90
2023-03-20T09:10:08.509Z,10.88
2023-03-20T09:10:18.707Z,10.90
2023-03-20T09:10:28.653Z,10.88
2023-03-20T09:10:38.807Z,10.88
2023-03-20T09:10:50.822Z,10.87
2023-03-20T09:10:58.757Z,10.90
2023-03-20T09:11:08.747Z,10.88
2023-03-20T09:11:18.907Z,10.88
2023-03-20T09:11:28.988Z,10.87
2023-03-20T09:11:39.162Z,10.86
2023-03-20T09:11:49.085Z,10.87
2023-03-20T09:11:59.079Z,10.88
2023-03-20T09:12:09.768Z,10.88
2023-03-20T09:12:19.240Z,10.88